sensor_id;sensor_type;location;lat;lon;timestamp;P1;durP1;ratioP1;P2;durP2;ratioP2
61840;SDS011;47773;53.174;6.614;2023-03-01T00:01:08;22.15;;;12.60;;
61840;SDS011;47773;53.174;6.614;2023-03-01T00:03:36;21.15;;;13.18;;
61840;SDS011;47773;53.174;6.614;2023-03-01T00:06:03;22.95;;;12.48;;
61840;SDS011;47773;53.174;6.614;2023-03-01T00:08:29;22.10;;;12.50;;
61840;SDS011;47773;53.174;6.614;2023-03-01T00:11:06;21.58;;;13.13;;
61840;SDS011;47773;53.174;6.614;2023-03-01T00:13:40;23.73;;;12.60;;
61840;SDS011;47773;53.174;6.614;2023-03-01T00:16:08;21.83;;;12.65;;
61840;SDS011;47773;53.174;6.614;2023-03-01T00:18:35;21.10;;;13.18;;
61840;SDS011;47773;53.174;6.614;2023-03-01T00:21:00;21.88;;;12.57;;
61840;SDS011;47773;53.174;6.614;2023-03-01T00:23:26;23.00;;;12.88;;
61840;SDS011;47773;53.174;6.614;2023-03-01T00:25:52;18.00;;;11.32;;
61840;SDS011;47773;53.174;6.614;2023-03-01T00:28:18;22.42;;;12.95;;
61840;SDS011;47773;53.174;6.614;2023-03-01T00:30:44;19.95;;;12.18;;
61840;SDS011;47773;53.174;6.614;2023-03-01T00:33:11;19.75;;;12.00;;
61840;SDS011;47773;53.174;6.614;2023-03-01T00:35:36;22.73;;;12.98;;
61840;SDS011;47773;53.174;6.614;2023-03-01T00:38:02;19.23;;;11.50;;
61840;SDS011;47773;53.174;6.614;2023-03-01T00:40:29;19.83;;;11.95;;
61840;SDS011;47773;53.174;6.614;2023-03-01T00:42:56;20.77;;;11.48;;
61840;SDS011;47773;53.174;6.614;2023-03-01T00:45:22;24.23;;;12.48;;
61840;SDS011;47773;53.174;6.614;2023-03-01T00:47:49;22.58;;;12.88;;
61840;SDS011;47773;53.174;6.614;2023-03-01T00:50:15;23.90;;;12.32;;
61840;SDS011;47773;53.174;6.614;2023-03-01T00:52:40;25.88;;;12.93;;
61840;SDS011;47773;53.174;6.614;2023-03-01T00:55:06;19.67;;;12.00;;
61840;SDS011;47773;53.174;6.614;2023-03-01T00:57:32;20.70;;;12.52;;
61840;SDS011;47773;53.174;6.614;2023-03-01T00:59:58;22.08;;;12.73;;
61840;SDS011;47773;53.174;6.614;2023-03-01T01:02:24;22.52;;;11.90;;
61840;SDS011;47773;53.174;6.614;2023-03-01T01:04:49;25.13;;;12.82;;
61840;SDS011;47773;53.174;6.614;2023-03-01T01:07:15;19.90;;;12.43;;
61840;SDS011;47773;53.174;6.614;2023-03-01T01:09:41;23.30;;;12.48;;
61840;SDS011;47773;53.174;6.614;2023-03-01T01:12:07;24.08;;;13.00;;
61840;SDS011;47773;53.174;6.614;2023-03-01T01:14:33;20.73;;;12.55;;
61840;SDS011;47773;53.174;6.614;2023-03-01T01:16:59;21.42;;;12.73;;
61840;SDS011;47773;53.174;6.614;2023-03-01T01:19:25;22.58;;;11.98;;
61840;SDS011;47773;53.174;6.614;2023-03-01T01:21:51;24.42;;;12.15;;
61840;SDS011;47773;53.174;6.614;2023-03-01T01:24:17;20.10;;;12.90;;
61840;SDS011;47773;53.174;6.614;2023-03-01T01:26:43;25.25;;;13.20;;
61840;SDS011;47773;53.174;6.614;2023-03-01T01:29:10;22.42;;;12.07;;
61840;SDS011;47773;53.174;6.614;2023-03-01T01:31:37;23.67;;;12.07;;
61840;SDS011;47773;53.174;6.614;2023-03-01T01:34:05;23.52;;;12.60;;
61840;SDS011;47773;53.174;6.614;2023-03-01T01:36:32;23.58;;;13.30;;
61840;SDS011;47773;53.174;6.614;2023-03-01T01:38:59;23.23;;;12.60;;
61840;SDS011;47773;53.174;6.614;2023-03-01T01:41:25;25.60;;;13.48;;
61840;SDS011;47773;53.174;6.614;2023-03-01T01:46:42;26.98;;;13.70;;
61840;SDS011;47773;53.174;6.614;2023-03-01T01:51:59;27.70;;;14.02;;
61840;SDS011;47773;53.174;6.614;2023-03-01T01:55:17;25.58;;;13.80;;
61840;SDS011;47773;53.174;6.614;2023-03-01T01:57:20;27.95;;;13.70;;
61840;SDS011;47773;53.174;6.614;2023-03-01T01:59:52;27.30;;;13.32;;
61840;SDS011;47773;53.174;6.614;2023-03-01T02:02:20;26.20;;;13.73;;
61840;SDS011;47773;53.174;6.614;2023-03-01T02:04:46;31.20;;;13.20;;
61840;SDS011;47773;53.174;6.614;2023-03-01T02:09:42;29.65;;;13.98;;
61840;SDS011;47773;53.174;6.614;2023-03-01T02:12:12;26.40;;;13.68;;
61840;SDS011;47773;53.174;6.614;2023-03-01T02:14:40;31.90;;;14.98;;
61840;SDS011;47773;53.174;6.614;2023-03-01T02:17:05;29.65;;;14.07;;
61840;SDS011;47773;53.174;6.614;2023-03-01T02:19:41;26.98;;;14.70;;
61840;SDS011;47773;53.174;6.614;2023-03-01T02:24:58;32.97;;;15.48;;
61840;SDS011;47773;53.174;6.614;2023-03-01T02:27:27;33.35;;;16.33;;
61840;SDS011;47773;53.174;6.614;2023-03-01T02:30:04;30.77;;;15.18;;
61840;SDS011;47773;53.174;6.614;2023-03-01T02:32:31;33.72;;;16.23;;
61840;SDS011;47773;53.174;6.614;2023-03-01T02:34:57;32.05;;;16.38;;
61840;SDS011;47773;53.174;6.614;2023-03-01T02:37:23;32.78;;;15.63;;
61840;SDS011;47773;53.174;6.614;2023-03-01T02:39:53;31.35;;;16.83;;
61840;SDS011;47773;53.174;6.614;2023-03-01T02:42:26;36.17;;;17.15;;
61840;SDS011;47773;53.174;6.614;2023-03-01T02:44:58;38.53;;;16.15;;
61840;SDS011;47773;53.174;6.614;2023-03-01T02:47:24;34.80;;;16.52;;
61840;SDS011;47773;53.174;6.614;2023-03-01T02:49:50;30.13;;;16.13;;
61840;SDS011;47773;53.174;6.614;2023-03-01T02:57:25;30.63;;;14.93;;
61840;SDS011;47773;53.174;6.614;2023-03-01T02:59:53;33.00;;;15.75;;
61840;SDS011;47773;53.174;6.614;2023-03-01T03:02:24;32.33;;;15.10;;
61840;SDS011;47773;53.174;6.614;2023-03-01T03:07:36;31.55;;;14.55;;
61840;SDS011;47773;53.174;6.614;2023-03-01T03:10:04;31.52;;;14.85;;
61840;SDS011;47773;53.174;6.614;2023-03-01T03:12:32;29.95;;;14.20;;
61840;SDS011;47773;53.174;6.614;2023-03-01T03:14:57;25.40;;;14.55;;
61840;SDS011;47773;53.174;6.614;2023-03-01T03:17:23;26.67;;;12.20;;
61840;SDS011;47773;53.174;6.614;2023-03-01T03:19:49;21.13;;;12.90;;
61840;SDS011;47773;53.174;6.614;2023-03-01T03:22:15;21.63;;;12.70;;
61840;SDS011;47773;53.174;6.614;2023-03-01T03:24:40;22.83;;;12.60;;
61840;SDS011;47773;53.174;6.614;2023-03-01T03:27:06;20.65;;;12.05;;
61840;SDS011;47773;53.174;6.614;2023-03-01T03:29:32;23.48;;;12.18;;
61840;SDS011;47773;53.174;6.614;2023-03-01T03:31:58;23.88;;;12.27;;
61840;SDS011;47773;53.174;6.614;2023-03-01T03:34:24;23.55;;;12.10;;
61840;SDS011;47773;53.174;6.614;2023-03-01T03:36:56;23.48;;;11.80;;
61840;SDS011;47773;53.174;6.614;2023-03-01T03:39:24;22.35;;;11.98;;
61840;SDS011;47773;53.174;6.614;2023-03-01T03:41:59;21.63;;;12.07;;
61840;SDS011;47773;53.174;6.614;2023-03-01T03:44:25;19.00;;;11.98;;
61840;SDS011;47773;53.174;6.614;2023-03-01T03:46:51;25.23;;;12.90;;
61840;SDS011;47773;53.174;6.614;2023-03-01T03:49:17;21.48;;;11.55;;
61840;SDS011;47773;53.174;6.614;2023-03-01T03:51:44;19.38;;;11.80;;
61840;SDS011;47773;53.174;6.614;2023-03-01T03:54:11;22.65;;;12.68;;
61840;SDS011;47773;53.174;6.614;2023-03-01T03:56:36;20.42;;;11.77;;
61840;SDS011;47773;53.174;6.614;2023-03-01T03:59:02;19.67;;;11.55;;
61840;SDS011;47773;53.174;6.614;2023-03-01T04:01:28;22.88;;;12.75;;
61840;SDS011;47773;53.174;6.614;2023-03-01T04:03:53;26.58;;;13.30;;
61840;SDS011;47773;53.174;6.614;2023-03-01T04:06:19;26.30;;;13.50;;
61840;SDS011;47773;53.174;6.614;2023-03-01T04:08:45;21.40;;;12.02;;
61840;SDS011;47773;53.174;6.614;2023-03-01T04:11:11;23.65;;;12.55;;
61840;SDS011;47773;53.174;6.614;2023-03-01T04:13:53;24.42;;;12.30;;
61840;SDS011;47773;53.174;6.614;2023-03-01T04:16:21;22.38;;;12.77;;
61840;SDS011;47773;53.174;6.614;2023-03-01T04:18:46;28.30;;;13.55;;
61840;SDS011;47773;53.174;6.614;2023-03-01T04:21:12;26.38;;;12.40;;
61840;SDS011;47773;53.174;6.614;2023-03-01T04:23:39;27.02;;;12.75;;
61840;SDS011;47773;53.174;6.614;2023-03-01T04:26:06;24.85;;;12.40;;
61840;SDS011;47773;53.174;6.614;2023-03-01T04:28:36;23.05;;;12.57;;
61840;SDS011;47773;53.174;6.614;2023-03-01T04:31:11;24.63;;;12.95;;
61840;SDS011;47773;53.174;6.614;2023-03-01T04:33:41;23.55;;;12.75;;
61840;SDS011;47773;53.174;6.614;2023-03-01T04:36:11;25.83;;;12.75;;
61840;SDS011;47773;53.174;6.614;2023-03-01T04:38:38;23.88;;;12.77;;
61840;SDS011;47773;53.174;6.614;2023-03-01T04:41:05;26.17;;;12.93;;
61840;SDS011;47773;53.174;6.614;2023-03-01T04:43:33;27.65;;;13.15;;
61840;SDS011;47773;53.174;6.614;2023-03-01T04:46:03;22.02;;;12.45;;
61840;SDS011;47773;53.174;6.614;2023-03-01T04:48:31;24.15;;;12.93;;
61840;SDS011;47773;53.174;6.614;2023-03-01T04:50:58;25.73;;;14.00;;
61840;SDS011;47773;53.174;6.614;2023-03-01T04:53:24;29.80;;;14.88;;
61840;SDS011;47773;53.174;6.614;2023-03-01T04:55:51;25.45;;;13.48;;
61840;SDS011;47773;53.174;6.614;2023-03-01T04:58:17;29.00;;;14.35;;
61840;SDS011;47773;53.174;6.614;2023-03-01T05:00:42;31.23;;;15.10;;
61840;SDS011;47773;53.174;6.614;2023-03-01T05:03:08;26.83;;;14.45;;
61840;SDS011;47773;53.174;6.614;2023-03-01T05:05:35;25.50;;;15.20;;
61840;SDS011;47773;53.174;6.614;2023-03-01T05:08:04;31.52;;;15.48;;
61840;SDS011;47773;53.174;6.614;2023-03-01T05:10:32;31.40;;;15.68;;
61840;SDS011;47773;53.174;6.614;2023-03-01T05:13:00;32.22;;;15.88;;
61840;SDS011;47773;53.174;6.614;2023-03-01T05:15:28;32.97;;;15.77;;
61840;SDS011;47773;53.174;6.614;2023-03-01T05:17:56;42.45;;;15.27;;
61840;SDS011;47773;53.174;6.614;2023-03-01T05:20:26;37.55;;;15.88;;
61840;SDS011;47773;53.174;6.614;2023-03-01T05:22:56;34.45;;;16.40;;
61840;SDS011;47773;53.174;6.614;2023-03-01T05:25:24;36.80;;;16.77;;
61840;SDS011;47773;53.174;6.614;2023-03-01T05:27:50;42.55;;;16.70;;
61840;SDS011;47773;53.174;6.614;2023-03-01T05:30:16;41.25;;;16.13;;
61840;SDS011;47773;53.174;6.614;2023-03-01T05:32:43;42.03;;;15.57;;
61840;SDS011;47773;53.174;6.614;2023-03-01T05:35:11;32.10;;;15.35;;
61840;SDS011;47773;53.174;6.614;2023-03-01T05:37:39;29.35;;;15.40;;
61840;SDS011;47773;53.174;6.614;2023-03-01T05:40:07;37.78;;;16.33;;
61840;SDS011;47773;53.174;6.614;2023-03-01T05:42:40;32.00;;;15.52;;
61840;SDS011;47773;53.174;6.614;2023-03-01T05:45:10;27.98;;;14.55;;
61840;SDS011;47773;53.174;6.614;2023-03-01T05:47:37;29.48;;;15.55;;
61840;SDS011;47773;53.174;6.614;2023-03-01T05:50:08;30.08;;;15.05;;
61840;SDS011;47773;53.174;6.614;2023-03-01T05:52:39;28.58;;;15.10;;
61840;SDS011;47773;53.174;6.614;2023-03-01T05:55:05;33.75;;;15.18;;
61840;SDS011;47773;53.174;6.614;2023-03-01T05:57:31;29.23;;;14.55;;
61840;SDS011;47773;53.174;6.614;2023-03-01T05:59:56;25.90;;;14.27;;
61840;SDS011;47773;53.174;6.614;2023-03-01T06:02:22;24.65;;;13.05;;
61840;SDS011;47773;53.174;6.614;2023-03-01T06:04:48;24.63;;;13.70;;
61840;SDS011;47773;53.174;6.614;2023-03-01T06:07:13;25.85;;;14.10;;
61840;SDS011;47773;53.174;6.614;2023-03-01T06:09:39;25.00;;;13.73;;
61840;SDS011;47773;53.174;6.614;2023-03-01T06:12:04;26.98;;;14.73;;
61840;SDS011;47773;53.174;6.614;2023-03-01T06:14:30;25.48;;;12.65;;
61840;SDS011;47773;53.174;6.614;2023-03-01T06:16:57;23.27;;;12.70;;
61840;SDS011;47773;53.174;6.614;2023-03-01T06:19:23;23.45;;;12.40;;
61840;SDS011;47773;53.174;6.614;2023-03-01T06:21:48;24.08;;;12.07;;
61840;SDS011;47773;53.174;6.614;2023-03-01T06:24:14;21.38;;;11.52;;
61840;SDS011;47773;53.174;6.614;2023-03-01T06:26:40;28.10;;;11.43;;
61840;SDS011;47773;53.174;6.614;2023-03-01T06:29:06;20.75;;;11.52;;
61840;SDS011;47773;53.174;6.614;2023-03-01T06:31:33;20.00;;;12.05;;
61840;SDS011;47773;53.174;6.614;2023-03-01T06:33:59;19.67;;;11.40;;
61840;SDS011;47773;53.174;6.614;2023-03-01T06:36:25;21.33;;;11.55;;
61840;SDS011;47773;53.174;6.614;2023-03-01T06:38:50;19.75;;;11.65;;
61840;SDS011;47773;53.174;6.614;2023-03-01T06:41:16;17.60;;;11.05;;
61840;SDS011;47773;53.174;6.614;2023-03-01T06:43:41;20.30;;;10.75;;
61840;SDS011;47773;53.174;6.614;2023-03-01T06:46:07;19.73;;;10.93;;
61840;SDS011;47773;53.174;6.614;2023-03-01T06:48:33;18.80;;;11.50;;
61840;SDS011;47773;53.174;6.614;2023-03-01T06:50:59;16.40;;;10.40;;
61840;SDS011;47773;53.174;6.614;2023-03-01T06:53:26;17.15;;;10.75;;
61840;SDS011;47773;53.174;6.614;2023-03-01T06:55:56;17.92;;;11.07;;
61840;SDS011;47773;53.174;6.614;2023-03-01T06:58:24;16.98;;;10.98;;
61840;SDS011;47773;53.174;6.614;2023-03-01T07:00:49;18.20;;;10.68;;
61840;SDS011;47773;53.174;6.614;2023-03-01T07:03:15;17.50;;;11.27;;
61840;SDS011;47773;53.174;6.614;2023-03-01T07:05:41;17.90;;;10.70;;
61840;SDS011;47773;53.174;6.614;2023-03-01T07:08:07;17.85;;;11.70;;
61840;SDS011;47773;53.174;6.614;2023-03-01T07:10:32;16.15;;;10.50;;
61840;SDS011;47773;53.174;6.614;2023-03-01T07:12:58;18.60;;;11.07;;
61840;SDS011;47773;53.174;6.614;2023-03-01T07:15:25;15.90;;;10.25;;
61840;SDS011;47773;53.174;6.614;2023-03-01T07:17:51;17.73;;;10.93;;
61840;SDS011;47773;53.174;6.614;2023-03-01T07:20:18;16.85;;;10.30;;
61840;SDS011;47773;53.174;6.614;2023-03-01T07:22:44;20.30;;;11.02;;
61840;SDS011;47773;53.174;6.614;2023-03-01T07:25:10;16.15;;;10.60;;
61840;SDS011;47773;53.174;6.614;2023-03-01T07:27:36;16.55;;;11.50;;
61840;SDS011;47773;53.174;6.614;2023-03-01T07:30:02;21.55;;;12.70;;
61840;SDS011;47773;53.174;6.614;2023-03-01T07:32:28;20.95;;;12.43;;
61840;SDS011;47773;53.174;6.614;2023-03-01T07:34:53;22.17;;;13.38;;
61840;SDS011;47773;53.174;6.614;2023-03-01T07:37:19;20.75;;;12.68;;
61840;SDS011;47773;53.174;6.614;2023-03-01T07:39:45;27.20;;;13.98;;
61840;SDS011;47773;53.174;6.614;2023-03-01T07:42:10;21.75;;;12.88;;
61840;SDS011;47773;53.174;6.614;2023-03-01T07:44:36;25.15;;;13.25;;
61840;SDS011;47773;53.174;6.614;2023-03-01T07:47:03;21.67;;;12.45;;
61840;SDS011;47773;53.174;6.614;2023-03-01T07:49:29;24.77;;;14.15;;
61840;SDS011;47773;53.174;6.614;2023-03-01T07:51:54;22.45;;;13.23;;
61840;SDS011;47773;53.174;6.614;2023-03-01T07:54:21;23.58;;;13.63;;
61840;SDS011;47773;53.174;6.614;2023-03-01T07:56:47;24.80;;;14.05;;
61840;SDS011;47773;53.174;6.614;2023-03-01T07:59:12;26.45;;;14.35;;
61840;SDS011;47773;53.174;6.614;2023-03-01T08:01:38;21.85;;;13.52;;
61840;SDS011;47773;53.174;6.614;2023-03-01T08:04:03;25.88;;;14.27;;
61840;SDS011;47773;53.174;6.614;2023-03-01T08:06:33;23.75;;;13.88;;
61840;SDS011;47773;53.174;6.614;2023-03-01T08:08:59;24.00;;;13.85;;
61840;SDS011;47773;53.174;6.614;2023-03-01T08:11:25;32.97;;;15.50;;
61840;SDS011;47773;53.174;6.614;2023-03-01T08:13:53;21.65;;;13.75;;
61840;SDS011;47773;53.174;6.614;2023-03-01T08:16:18;23.58;;;14.48;;
61840;SDS011;47773;53.174;6.614;2023-03-01T08:18:44;25.13;;;15.45;;
61840;SDS011;47773;53.174;6.614;2023-03-01T08:21:11;28.35;;;14.90;;
61840;SDS011;47773;53.174;6.614;2023-03-01T08:23:39;22.83;;;15.25;;
61840;SDS011;47773;53.174;6.614;2023-03-01T08:26:09;23.50;;;14.45;;
61840;SDS011;47773;53.174;6.614;2023-03-01T08:28:53;24.90;;;14.68;;
61840;SDS011;47773;53.174;6.614;2023-03-01T08:31:29;24.75;;;14.90;;
61840;SDS011;47773;53.174;6.614;2023-03-01T08:34:01;22.55;;;14.30;;
61840;SDS011;47773;53.174;6.614;2023-03-01T08:36:29;28.48;;;16.10;;
61840;SDS011;47773;53.174;6.614;2023-03-01T08:38:57;35.88;;;19.75;;
61840;SDS011;47773;53.174;6.614;2023-03-01T08:41:23;36.72;;;22.15;;
61840;SDS011;47773;53.174;6.614;2023-03-01T08:43:49;29.23;;;18.33;;
61840;SDS011;47773;53.174;6.614;2023-03-01T08:46:15;35.80;;;17.13;;
61840;SDS011;47773;53.174;6.614;2023-03-01T08:48:41;30.50;;;17.85;;
61840;SDS011;47773;53.174;6.614;2023-03-01T08:51:11;29.90;;;18.13;;
61840;SDS011;47773;53.174;6.614;2023-03-01T08:53:39;30.25;;;17.40;;
61840;SDS011;47773;53.174;6.614;2023-03-01T08:56:05;32.58;;;19.02;;
61840;SDS011;47773;53.174;6.614;2023-03-01T08:58:31;32.20;;;18.13;;
61840;SDS011;47773;53.174;6.614;2023-03-01T09:00:57;34.33;;;18.98;;
61840;SDS011;47773;53.174;6.614;2023-03-01T09:03:24;29.08;;;18.65;;
61840;SDS011;47773;53.174;6.614;2023-03-01T09:05:50;34.00;;;19.67;;
61840;SDS011;47773;53.174;6.614;2023-03-01T09:08:17;33.35;;;19.13;;
61840;SDS011;47773;53.174;6.614;2023-03-01T09:10:43;36.90;;;19.15;;
61840;SDS011;47773;53.174;6.614;2023-03-01T09:13:10;33.22;;;18.45;;
61840;SDS011;47773;53.174;6.614;2023-03-01T09:15:38;32.35;;;19.02;;
61840;SDS011;47773;53.174;6.614;2023-03-01T09:18:05;35.45;;;18.67;;
61840;SDS011;47773;53.174;6.614;2023-03-01T09:20:31;28.60;;;18.45;;
61840;SDS011;47773;53.174;6.614;2023-03-01T09:22:57;30.25;;;17.27;;
61840;SDS011;47773;53.174;6.614;2023-03-01T09:25:23;30.50;;;18.35;;
61840;SDS011;47773;53.174;6.614;2023-03-01T09:27:53;31.20;;;17.75;;
61840;SDS011;47773;53.174;6.614;2023-03-01T09:30:19;31.75;;;17.20;;
61840;SDS011;47773;53.174;6.614;2023-03-01T09:32:45;27.55;;;16.48;;
61840;SDS011;47773;53.174;6.614;2023-03-01T09:35:11;31.90;;;19.35;;
61840;SDS011;47773;53.174;6.614;2023-03-01T09:37:37;30.98;;;18.23;;
61840;SDS011;47773;53.174;6.614;2023-03-01T09:40:04;31.55;;;18.90;;
61840;SDS011;47773;53.174;6.614;2023-03-01T09:42:32;32.70;;;18.88;;
61840;SDS011;47773;53.174;6.614;2023-03-01T09:45:02;33.75;;;19.50;;
61840;SDS011;47773;53.174;6.614;2023-03-01T09:47:31;33.67;;;18.42;;
61840;SDS011;47773;53.174;6.614;2023-03-01T09:50:09;30.45;;;17.30;;
61840;SDS011;47773;53.174;6.614;2023-03-01T09:55:14;31.20;;;17.70;;
61840;SDS011;47773;53.174;6.614;2023-03-01T09:57:50;31.08;;;17.70;;
61840;SDS011;47773;53.174;6.614;2023-03-01T10:00:30;27.27;;;16.13;;
61840;SDS011;47773;53.174;6.614;2023-03-01T10:10:54;23.42;;;14.60;;
61840;SDS011;47773;53.174;6.614;2023-03-01T10:15:59;23.80;;;13.68;;
61840;SDS011;47773;53.174;6.614;2023-03-01T10:21:02;24.25;;;13.25;;
61840;SDS011;47773;53.174;6.614;2023-03-01T10:23:38;22.55;;;13.85;;
61840;SDS011;47773;53.174;6.614;2023-03-01T10:26:09;22.60;;;13.27;;
61840;SDS011;47773;53.174;6.614;2023-03-01T10:29:04;25.30;;;13.95;;
61840;SDS011;47773;53.174;6.614;2023-03-01T10:31:42;24.05;;;12.82;;
61840;SDS011;47773;53.174;6.614;2023-03-01T10:34:13;22.15;;;13.45;;
61840;SDS011;47773;53.174;6.614;2023-03-01T10:36:41;24.98;;;14.55;;
61840;SDS011;47773;53.174;6.614;2023-03-01T10:39:13;21.25;;;13.23;;
61840;SDS011;47773;53.174;6.614;2023-03-01T10:41:52;19.80;;;12.60;;
61840;SDS011;47773;53.174;6.614;2023-03-01T10:47:19;23.73;;;15.15;;
61840;SDS011;47773;53.174;6.614;2023-03-01T10:49:58;24.02;;;14.50;;
61840;SDS011;47773;53.174;6.614;2023-03-01T10:52:35;24.67;;;14.77;;
61840;SDS011;47773;53.174;6.614;2023-03-01T10:55:47;29.77;;;15.63;;
61840;SDS011;47773;53.174;6.614;2023-03-01T11:03:41;31.85;;;17.70;;
61840;SDS011;47773;53.174;6.614;2023-03-01T11:08:43;24.02;;;14.98;;
61840;SDS011;47773;53.174;6.614;2023-03-01T11:13:52;23.83;;;14.80;;
61840;SDS011;47773;53.174;6.614;2023-03-01T11:16:24;31.38;;;16.73;;
61840;SDS011;47773;53.174;6.614;2023-03-01T11:21:33;26.17;;;15.57;;
61840;SDS011;47773;53.174;6.614;2023-03-01T11:24:05;23.83;;;15.48;;
61840;SDS011;47773;53.174;6.614;2023-03-01T11:26:38;26.55;;;15.25;;
61840;SDS011;47773;53.174;6.614;2023-03-01T11:29:09;19.67;;;13.30;;
61840;SDS011;47773;53.174;6.614;2023-03-01T11:31:52;21.85;;;14.40;;
61840;SDS011;47773;53.174;6.614;2023-03-01T11:40:21;23.90;;;15.02;;
61840;SDS011;47773;53.174;6.614;2023-03-01T11:42:53;22.65;;;14.88;;
61840;SDS011;47773;53.174;6.614;2023-03-01T11:45:26;24.60;;;14.50;;
61840;SDS011;47773;53.174;6.614;2023-03-01T11:50:47;22.90;;;14.45;;
61840;SDS011;47773;53.174;6.614;2023-03-01T11:58:36;26.38;;;15.55;;
61840;SDS011;47773;53.174;6.614;2023-03-01T12:07:24;27.95;;;14.82;;
61840;SDS011;47773;53.174;6.614;2023-03-01T12:18:45;18.95;;;12.18;;
61840;SDS011;47773;53.174;6.614;2023-03-01T12:29:25;17.05;;;11.48;;
61840;SDS011;47773;53.174;6.614;2023-03-01T12:37:56;19.30;;;12.90;;
61840;SDS011;47773;53.174;6.614;2023-03-01T12:40:41;19.63;;;12.53;;
61840;SDS011;47773;53.174;6.614;2023-03-01T12:43:30;17.00;;;10.75;;
61840;SDS011;47773;53.174;6.614;2023-03-01T12:46:25;16.27;;;10.07;;
61840;SDS011;47773;53.174;6.614;2023-03-01T12:51:29;16.88;;;10.73;;
61840;SDS011;47773;53.174;6.614;2023-03-01T12:53:58;18.13;;;10.68;;
61840;SDS011;47773;53.174;6.614;2023-03-01T12:56:28;15.40;;;9.73;;
61840;SDS011;47773;53.174;6.614;2023-03-01T13:01:33;15.77;;;9.85;;
61840;SDS011;47773;53.174;6.614;2023-03-01T13:06:57;18.83;;;10.07;;
61840;SDS011;47773;53.174;6.614;2023-03-01T13:15:24;30.33;;;15.57;;
61840;SDS011;47773;53.174;6.614;2023-03-01T13:17:55;26.05;;;14.43;;
61840;SDS011;47773;53.174;6.614;2023-03-01T13:20:45;17.98;;;11.02;;
61840;SDS011;47773;53.174;6.614;2023-03-01T13:30:57;19.63;;;11.38;;
61840;SDS011;47773;53.174;6.614;2023-03-01T13:35:59;16.33;;;11.15;;
61840;SDS011;47773;53.174;6.614;2023-03-01T13:41:13;17.50;;;11.30;;
61840;SDS011;47773;53.174;6.614;2023-03-01T13:43:41;17.60;;;11.10;;
61840;SDS011;47773;53.174;6.614;2023-03-01T13:46:21;16.70;;;10.18;;
61840;SDS011;47773;53.174;6.614;2023-03-01T13:48:53;19.50;;;11.63;;
61840;SDS011;47773;53.174;6.614;2023-03-01T13:51:22;17.08;;;10.23;;
61840;SDS011;47773;53.174;6.614;2023-03-01T13:53:51;16.92;;;10.13;;
61840;SDS011;47773;53.174;6.614;2023-03-01T13:56:19;18.38;;;10.77;;
61840;SDS011;47773;53.174;6.614;2023-03-01T14:01:35;15.95;;;10.52;;
61840;SDS011;47773;53.174;6.614;2023-03-01T14:04:02;16.10;;;10.25;;
61840;SDS011;47773;53.174;6.614;2023-03-01T14:06:30;19.90;;;10.95;;
61840;SDS011;47773;53.174;6.614;2023-03-01T14:09:20;19.95;;;10.35;;
61840;SDS011;47773;53.174;6.614;2023-03-01T14:14:59;19.08;;;11.55;;
61840;SDS011;47773;53.174;6.614;2023-03-01T14:20:11;18.10;;;11.27;;
61840;SDS011;47773;53.174;6.614;2023-03-01T14:22:48;20.77;;;12.00;;
61840;SDS011;47773;53.174;6.614;2023-03-01T14:25:23;19.20;;;12.00;;
61840;SDS011;47773;53.174;6.614;2023-03-01T14:30:59;18.23;;;12.90;;
61840;SDS011;47773;53.174;6.614;2023-03-01T14:35:55;21.42;;;12.65;;
61840;SDS011;47773;53.174;6.614;2023-03-01T14:38:23;25.20;;;12.90;;
61840;SDS011;47773;53.174;6.614;2023-03-01T14:40:57;20.65;;;12.75;;
61840;SDS011;47773;53.174;6.614;2023-03-01T14:43:26;23.25;;;13.60;;
61840;SDS011;47773;53.174;6.614;2023-03-01T14:45:53;21.92;;;13.20;;
61840;SDS011;47773;53.174;6.614;2023-03-01T14:48:19;21.55;;;12.90;;
61840;SDS011;47773;53.174;6.614;2023-03-01T14:50:45;23.00;;;13.55;;
61840;SDS011;47773;53.174;6.614;2023-03-01T14:53:15;21.02;;;13.75;;
61840;SDS011;47773;53.174;6.614;2023-03-01T14:55:44;21.40;;;13.60;;
61840;SDS011;47773;53.174;6.614;2023-03-01T14:58:13;19.35;;;12.80;;
61840;SDS011;47773;53.174;6.614;2023-03-01T15:00:46;22.10;;;13.40;;
61840;SDS011;47773;53.174;6.614;2023-03-01T15:03:27;22.08;;;12.85;;
61840;SDS011;47773;53.174;6.614;2023-03-01T15:06:22;19.67;;;12.48;;
61840;SDS011;47773;53.174;6.614;2023-03-01T15:08:49;20.50;;;13.25;;
61840;SDS011;47773;53.174;6.614;2023-03-01T15:11:23;22.60;;;13.55;;
61840;SDS011;47773;53.174;6.614;2023-03-01T15:13:53;20.45;;;12.43;;
61840;SDS011;47773;53.174;6.614;2023-03-01T15:16:26;22.83;;;12.40;;
61840;SDS011;47773;53.174;6.614;2023-03-01T15:18:57;24.08;;;13.57;;
61840;SDS011;47773;53.174;6.614;2023-03-01T15:21:27;20.15;;;12.60;;
61840;SDS011;47773;53.174;6.614;2023-03-01T15:26:41;21.00;;;13.75;;
61840;SDS011;47773;53.174;6.614;2023-03-01T15:29:17;20.33;;;13.02;;
61840;SDS011;47773;53.174;6.614;2023-03-01T15:31:54;22.40;;;13.48;;
61840;SDS011;47773;53.174;6.614;2023-03-01T15:34:43;20.50;;;12.70;;
61840;SDS011;47773;53.174;6.614;2023-03-01T15:40:26;22.55;;;13.90;;
61840;SDS011;47773;53.174;6.614;2023-03-01T15:43:05;19.67;;;12.37;;
61840;SDS011;47773;53.174;6.614;2023-03-01T15:45:32;23.30;;;13.00;;
61840;SDS011;47773;53.174;6.614;2023-03-01T15:48:24;24.53;;;13.10;;
61840;SDS011;47773;53.174;6.614;2023-03-01T15:50:55;19.27;;;12.45;;
61840;SDS011;47773;53.174;6.614;2023-03-01T15:53:23;20.52;;;12.63;;
61840;SDS011;47773;53.174;6.614;2023-03-01T15:55:49;23.08;;;13.55;;
61840;SDS011;47773;53.174;6.614;2023-03-01T15:58:19;18.98;;;12.25;;
61840;SDS011;47773;53.174;6.614;2023-03-01T16:00:47;21.08;;;12.25;;
61840;SDS011;47773;53.174;6.614;2023-03-01T16:03:16;23.00;;;13.05;;
61840;SDS011;47773;53.174;6.614;2023-03-01T16:05:46;19.85;;;12.57;;
61840;SDS011;47773;53.174;6.614;2023-03-01T16:08:12;19.15;;;12.02;;
61840;SDS011;47773;53.174;6.614;2023-03-01T16:10:39;18.98;;;11.70;;
61840;SDS011;47773;53.174;6.614;2023-03-01T16:13:06;22.38;;;13.00;;
61840;SDS011;47773;53.174;6.614;2023-03-01T16:15:33;23.00;;;12.48;;
61840;SDS011;47773;53.174;6.614;2023-03-01T16:18:03;18.02;;;11.88;;
61840;SDS011;47773;53.174;6.614;2023-03-01T16:20:30;20.20;;;12.55;;
61840;SDS011;47773;53.174;6.614;2023-03-01T16:23:04;19.58;;;12.40;;
61840;SDS011;47773;53.174;6.614;2023-03-01T16:25:31;20.92;;;12.65;;
61840;SDS011;47773;53.174;6.614;2023-03-01T16:27:58;22.00;;;12.80;;
61840;SDS011;47773;53.174;6.614;2023-03-01T16:30:25;19.80;;;12.90;;
61840;SDS011;47773;53.174;6.614;2023-03-01T16:32:51;21.10;;;13.68;;
61840;SDS011;47773;53.174;6.614;2023-03-01T16:35:18;21.05;;;13.20;;
61840;SDS011;47773;53.174;6.614;2023-03-01T16:37:45;23.77;;;13.73;;
61840;SDS011;47773;53.174;6.614;2023-03-01T16:40:24;23.30;;;13.93;;
61840;SDS011;47773;53.174;6.614;2023-03-01T16:42:54;20.23;;;13.18;;
61840;SDS011;47773;53.174;6.614;2023-03-01T16:45:24;22.25;;;13.35;;
61840;SDS011;47773;53.174;6.614;2023-03-01T16:47:51;19.70;;;12.77;;
61840;SDS011;47773;53.174;6.614;2023-03-01T16:50:17;21.90;;;13.75;;
61840;SDS011;47773;53.174;6.614;2023-03-01T16:52:44;22.80;;;14.27;;